sensor_id;sensor_type;location;lat;lon;timestamp;pressure;altitude;pressure_sealevel;temperature;humidity
23589;BME280;11972;48.078;11.876;2023-02-12T00:02:50;97189.28;;;3.38;100.00
23589;BME280;11972;48.078;11.876;2023-02-12T00:06:51;97183.00;;;3.40;100.00
23589;BME280;11972;48.078;11.876;2023-02-12T00:10:51;97179.44;;;3.41;100.00
23589;BME280;11972;48.078;11.876;2023-02-12T00:14:51;97184.59;;;3.43;100.00
23589;BME280;11972;48.078;11.876;2023-02-12T00:18:55;97173.38;;;3.41;100.00
23589;BME280;11972;48.078;11.876;2023-02-12T00:22:55;97171.47;;;3.30;100.00
23589;BME280;11972;48.078;11.876;2023-02-12T00:26:56;97179.50;;;3.27;100.00
23589;BME280;11972;48.078;11.876;2023-02-12T00:30:56;97186.75;;;3.36;100.00
23589;BME280;11972;48.078;11.876;2023-02-12T00:34:56;97182.28;;;3.38;100.00
23589;BME280;11972;48.078;11.876;2023-02-12T00:38:57;97174.34;;;3.40;100.00
23589;BME280;11972;48.078;11.876;2023-02-12T00:42:58;97174.34;;;3.40;100.00
23589;BME280;11972;48.078;11.876;2023-02-12T00:46:58;97176.09;;;3.39;100.00
23589;BME280;11972;48.078;11.876;2023-02-12T00:51:02;97173.19;;;3.44;100.00
23589;BME280;11972;48.078;11.876;2023-02-12T00:55:03;97186.56;;;3.39;100.00
23589;BME280;11972;48.078;11.876;2023-02-12T00:59:04;97196.16;;;3.39;100.00
23589;BME280;11972;48.078;11.876;2023-02-12T01:03:04;97197.94;;;3.38;100.00
23589;BME280;11972;48.078;11.876;2023-02-12T01:07:05;97199.44;;;3.28;100.00
23589;BME280;11972;48.078;11.876;2023-02-12T01:11:05;97198.84;;;3.37;100.00
23589;BME280;11972;48.078;11.876;2023-02-12T01:15:06;97194.94;;;3.44;100.00
23589;BME280;11972;48.078;11.876;2023-02-12T01:19:06;97202.03;;;3.42;100.00
23589;BME280;11972;48.078;11.876;2023-02-12T01:23:07;97208.19;;;3.41;100.00
23589;BME280;11972;48.078;11.876;2023-02-12T01:27:07;97194.56;;;3.36;100.00
23589;BME280;11972;48.078;11.876;2023-02-12T01:31:13;97200.09;;;3.32;100.00
23589;BME280;11972;48.078;11.876;2023-02-12T01:35:14;97210.53;;;3.32;100.00
23589;BME280;11972;48.078;11.876;2023-02-12T01:39:14;97197.06;;;3.11;100.00
23589;BME280;11972;48.078;11.876;2023-02-12T01:43:14;97195.56;;;3.07;100.00
23589;BME280;11972;48.078;11.876;2023-02-12T01:47:18;97188.56;;;3.07;100.00
23589;BME280;11972;48.078;11.876;2023-02-12T01:51:19;97193.50;;;3.12;100.00
23589;BME280;11972;48.078;11.876;2023-02-12T01:55:50;97187.91;;;3.18;100.00
23589;BME280;11972;48.078;11.876;2023-02-12T01:59:53;97181.47;;;3.23;100.00
23589;BME280;11972;48.078;11.876;2023-02-12T02:04:03;97179.13;;;3.19;100.00
23589;BME280;11972;48.078;11.876;2023-02-12T02:08:04;97174.69;;;3.21;100.00
23589;BME280;11972;48.078;11.876;2023-02-12T02:12:06;97184.38;;;3.19;100.00
23589;BME280;11972;48.078;11.876;2023-02-12T02:16:28;97191.66;;;3.14;100.00
23589;BME280;11972;48.078;11.876;2023-02-12T02:38:23;97190.06;;;3.26;100.00
23589;BME280;11972;48.078;11.876;2023-02-12T02:42:44;97173.31;;;3.28;100.00
23589;BME280;11972;48.078;11.876;2023-02-12T02:46:50;97169.22;;;3.24;100.00
23589;BME280;11972;48.078;11.876;2023-02-12T02:50:56;97161.88;;;3.16;100.00
23589;BME280;11972;48.078;11.876;2023-02-12T02:55:06;97154.91;;;3.17;100.00
23589;BME280;11972;48.078;11.876;2023-02-12T02:59:13;97165.34;;;3.17;100.00
23589;BME280;11972;48.078;11.876;2023-02-12T03:03:33;97168.31;;;3.25;100.00
23589;BME280;11972;48.078;11.876;2023-02-12T03:07:41;97178.41;;;3.03;100.00
23589;BME280;11972;48.078;11.876;2023-02-12T03:11:43;97192.78;;;2.95;100.00
23589;BME280;11972;48.078;11.876;2023-02-12T03:15:48;97190.94;;;2.97;100.00
23589;BME280;11972;48.078;11.876;2023-02-12T03:19:57;97200.31;;;3.00;100.00
23589;BME280;11972;48.078;11.876;2023-02-12T03:24:06;97198.66;;;3.13;100.00
23589;BME280;11972;48.078;11.876;2023-02-12T03:28:17;97199.84;;;3.22;100.00
23589;BME280;11972;48.078;11.876;2023-02-12T03:40:41;97196.06;;;3.40;100.00
23589;BME280;11972;48.078;11.876;2023-02-12T03:44:52;97192.50;;;3.41;100.00
23589;BME280;11972;48.078;11.876;2023-02-12T03:49:12;97193.44;;;3.40;100.00
23589;BME280;11972;48.078;11.876;2023-02-12T03:53:16;97199.06;;;3.34;100.00
23589;BME280;11972;48.078;11.876;2023-02-12T03:57:20;97204.31;;;3.34;100.00
23589;BME280;11972;48.078;11.876;2023-02-12T04:01:21;97197.38;;;3.33;100.00
23589;BME280;11972;48.078;11.876;2023-02-12T04:05:25;97203.00;;;3.27;100.00
23589;BME280;11972;48.078;11.876;2023-02-12T04:09:26;97223.28;;;3.09;100.00
23589;BME280;11972;48.078;11.876;2023-02-12T04:13:36;97218.13;;;3.08;100.00
23589;BME280;11972;48.078;11.876;2023-02-12T04:18:06;97218.41;;;3.17;100.00
23589;BME280;11972;48.078;11.876;2023-02-12T04:22:16;97215.88;;;3.16;100.00
23589;BME280;11972;48.078;11.876;2023-02-12T04:26:47;97223.63;;;3.17;100.00
23589;BME280;11972;48.078;11.876;2023-02-12T04:30:58;97223.00;;;3.14;100.00
23589;BME280;11972;48.078;11.876;2023-02-12T04:35:07;97228.50;;;2.95;100.00
23589;BME280;11972;48.078;11.876;2023-02-12T04:39:15;97235.88;;;2.88;100.00
23589;BME280;11972;48.078;11.876;2023-02-12T04:43:31;97238.19;;;2.93;100.00
23589;BME280;11972;48.078;11.876;2023-02-12T04:47:33;97243.31;;;2.94;100.00
23589;BME280;11972;48.078;11.876;2023-02-12T04:51:34;97236.03;;;2.99;100.00
23589;BME280;11972;48.078;11.876;2023-02-12T04:55:34;97246.50;;;3.14;100.00
23589;BME280;11972;48.078;11.876;2023-02-12T04:59:35;97240.88;;;3.20;100.00
23589;BME280;11972;48.078;11.876;2023-02-12T05:03:35;97244.97;;;3.24;100.00
23589;BME280;11972;48.078;11.876;2023-02-12T05:07:36;97249.19;;;3.27;100.00
23589;BME280;11972;48.078;11.876;2023-02-12T05:11:36;97254.50;;;3.25;100.00
23589;BME280;11972;48.078;11.876;2023-02-12T05:15:40;97257.47;;;3.19;100.00
23589;BME280;11972;48.078;11.876;2023-02-12T05:19:40;97251.03;;;3.24;100.00
23589;BME280;11972;48.078;11.876;2023-02-12T05:23:41;97257.31;;;3.22;100.00
23589;BME280;11972;48.078;11.876;2023-02-12T05:27:41;97255.34;;;3.11;100.00
23589;BME280;11972;48.078;11.876;2023-02-12T05:31:42;97261.47;;;2.96;100.00
23589;BME280;11972;48.078;11.876;2023-02-12T05:35:42;97260.47;;;2.98;100.00
23589;BME280;11972;48.078;11.876;2023-02-12T05:39:42;97263.81;;;3.15;100.00
23589;BME280;11972;48.078;11.876;2023-02-12T05:43:43;97258.78;;;3.26;100.00
23589;BME280;11972;48.078;11.876;2023-02-12T05:47:44;97257.84;;;3.27;100.00
23589;BME280;11972;48.078;11.876;2023-02-12T05:51:44;97257.88;;;3.13;100.00
23589;BME280;11972;48.078;11.876;2023-02-12T05:55:45;97270.28;;;3.09;100.00
23589;BME280;11972;48.078;11.876;2023-02-12T05:59:45;97273.63;;;2.97;100.00
23589;BME280;11972;48.078;11.876;2023-02-12T06:03:45;97279.13;;;3.07;100.00
23589;BME280;11972;48.078;11.876;2023-02-12T06:07:46;97266.91;;;3.21;100.00
23589;BME280;11972;48.078;11.876;2023-02-12T06:11:46;97279.47;;;3.29;100.00
23589;BME280;11972;48.078;11.876;2023-02-12T06:15:47;97274.81;;;3.20;100.00
23589;BME280;11972;48.078;11.876;2023-02-12T06:19:47;97273.16;;;3.19;100.00
23589;BME280;11972;48.078;11.876;2023-02-12T06:23:48;97280.03;;;3.20;100.00
23589;BME280;11972;48.078;11.876;2023-02-12T06:27:49;97280.81;;;3.22;100.00
23589;BME280;11972;48.078;11.876;2023-02-12T06:31:49;97286.56;;;3.27;100.00
23589;BME280;11972;48.078;11.876;2023-02-12T06:35:49;97284.44;;;3.34;100.00
23589;BME280;11972;48.078;11.876;2023-02-12T06:39:49;97287.78;;;3.36;100.00
23589;BME280;11972;48.078;11.876;2023-02-12T06:43:50;97282.09;;;3.29;100.00
23589;BME280;11972;48.078;11.876;2023-02-12T06:47:50;97285.47;;;3.17;100.00
23589;BME280;11972;48.078;11.876;2023-02-12T06:51:51;97287.72;;;3.09;100.00
23589;BME280;11972;48.078;11.876;2023-02-12T06:55:51;97293.66;;;3.11;100.00
23589;BME280;11972;48.078;11.876;2023-02-12T06:59:51;97294.22;;;3.16;100.00
23589;BME280;11972;48.078;11.876;2023-02-12T07:03:55;97299.09;;;3.22;100.00
23589;BME280;11972;48.078;11.876;2023-02-12T07:07:55;97299.47;;;3.30;100.00
23589;BME280;11972;48.078;11.876;2023-02-12T07:11:59;97305.06;;;3.38;100.00
23589;BME280;11972;48.078;11.876;2023-02-12T07:16:08;97309.81;;;3.32;100.00
23589;BME280;11972;48.078;11.876;2023-02-12T07:20:09;97307.09;;;3.33;100.00
23589;BME280;11972;48.078;11.876;2023-02-12T07:24:10;97296.53;;;3.49;100.00
23589;BME280;11972;48.078;11.876;2023-02-12T07:28:11;97301.56;;;3.66;100.00
23589;BME280;11972;48.078;11.876;2023-02-12T07:32:11;97297.91;;;3.83;100.00
23589;BME280;11972;48.078;11.876;2023-02-12T07:36:14;97293.38;;;3.85;100.00
23589;BME280;11972;48.078;11.876;2023-02-12T07:40:15;97301.00;;;4.03;100.00
23589;BME280;11972;48.078;11.876;2023-02-12T07:44:16;97281.59;;;4.19;100.00
23589;BME280;11972;48.078;11.876;2023-02-12T07:48:16;97292.50;;;4.26;100.00
23589;BME280;11972;48.078;11.876;2023-02-12T07:52:16;97290.88;;;4.38;100.00
23589;BME280;11972;48.078;11.876;2023-02-12T07:56:22;97288.59;;;4.59;100.00
23589;BME280;11972;48.078;11.876;2023-02-12T08:00:23;97277.75;;;4.78;100.00
23589;BME280;11972;48.078;11.876;2023-02-12T08:04:24;97281.34;;;5.02;100.00
23589;BME280;11972;48.078;11.876;2023-02-12T08:08:24;97282.78;;;5.19;100.00
23589;BME280;11972;48.078;11.876;2023-02-12T08:12:24;97282.97;;;5.41;100.00
23589;BME280;11972;48.078;11.876;2023-02-12T08:16:26;97291.22;;;5.61;100.00
23589;BME280;11972;48.078;11.876;2023-02-12T08:20:27;97282.69;;;5.70;100.00
23589;BME280;11972;48.078;11.876;2023-02-12T08:24:28;97283.50;;;5.83;100.00
23589;BME280;11972;48.078;11.876;2023-02-12T08:28:28;97285.25;;;5.95;100.00
23589;BME280;11972;48.078;11.876;2023-02-12T08:32:28;97281.03;;;6.06;100.00
23589;BME280;11972;48.078;11.876;2023-02-12T08:36:38;97281.69;;;6.20;100.00
23589;BME280;11972;48.078;11.876;2023-02-12T08:40:39;97272.44;;;6.28;100.00
23589;BME280;11972;48.078;11.876;2023-02-12T08:44:41;97280.00;;;6.43;100.00
23589;BME280;11972;48.078;11.876;2023-02-12T08:48:42;97269.38;;;6.45;100.00
23589;BME280;11972;48.078;11.876;2023-02-12T08:52:43;97270.00;;;6.49;100.00
23589;BME280;11972;48.078;11.876;2023-02-12T08:56:43;97271.22;;;6.56;100.00
23589;BME280;11972;48.078;11.876;2023-02-12T09:00:44;97276.63;;;6.65;100.00
23589;BME280;11972;48.078;11.876;2023-02-12T09:04:44;97271.75;;;6.72;100.00
23589;BME280;11972;48.078;11.876;2023-02-12T09:08:45;97281.94;;;6.88;100.00
23589;BME280;11972;48.078;11.876;2023-02-12T09:12:45;97287.81;;;7.14;100.00
23589;BME280;11972;48.078;11.876;2023-02-12T09:16:46;97284.97;;;7.51;100.00
23589;BME280;11972;48.078;11.876;2023-02-12T09:20:46;97283.19;;;7.62;100.00
23589;BME280;11972;48.078;11.876;2023-02-12T09:24:46;97287.09;;;7.79;100.00
23589;BME280;11972;48.078;11.876;2023-02-12T09:28:48;97284.00;;;7.63;100.00
23589;BME280;11972;48.078;11.876;2023-02-12T09:32:49;97282.75;;;7.89;100.00
23589;BME280;11972;48.078;11.876;2023-02-12T09:36:49;97282.44;;;8.26;100.00
23589;BME280;11972;48.078;11.876;2023-02-12T09:45:26;97283.75;;;8.32;100.00
23589;BME280;11972;48.078;11.876;2023-02-12T09:49:42;97291.06;;;8.28;100.00
23589;BME280;11972;48.078;11.876;2023-02-12T09:53:47;97292.69;;;7.86;100.00
23589;BME280;11972;48.078;11.876;2023-02-12T09:57:49;97295.09;;;7.89;100.00
23589;BME280;11972;48.078;11.876;2023-02-12T10:01:49;97293.06;;;7.81;100.00
23589;BME280;11972;48.078;11.876;2023-02-12T10:05:59;97300.53;;;7.54;100.00
23589;BME280;11972;48.078;11.876;2023-02-12T10:10:12;97297.88;;;7.42;100.00
23589;BME280;11972;48.078;11.876;2023-02-12T10:27:14;97285.47;;;8.10;100.00
23589;BME280;11972;48.078;11.876;2023-02-12T10:31:31;97290.50;;;8.57;100.00
23589;BME280;11972;48.078;11.876;2023-02-12T10:35:34;97298.16;;;8.16;100.00
23589;BME280;11972;48.078;11.876;2023-02-12T10:39:44;97293.34;;;7.67;100.00
23589;BME280;11972;48.078;11.876;2023-02-12T10:43:47;97299.09;;;7.50;100.00
23589;BME280;11972;48.078;11.876;2023-02-12T10:47:53;97295.22;;;7.87;100.00
23589;BME280;11972;48.078;11.876;2023-02-12T10:52:08;97293.47;;;7.43;100.00
23589;BME280;11972;48.078;11.876;2023-02-12T11:00:34;97295.47;;;7.17;100.00
23589;BME280;11972;48.078;11.876;2023-02-12T11:04:35;97291.78;;;7.42;100.00
23589;BME280;11972;48.078;11.876;2023-02-12T11:08:36;97282.53;;;7.81;100.00
23589;BME280;11972;48.078;11.876;2023-02-12T11:12:41;97282.00;;;8.10;100.00
23589;BME280;11972;48.078;11.876;2023-02-12T11:16:58;97272.09;;;8.45;100.00
23589;BME280;11972;48.078;11.876;2023-02-12T11:21:05;97267.16;;;8.20;100.00
23589;BME280;11972;48.078;11.876;2023-02-12T11:25:14;97268.44;;;8.26;100.00
23589;BME280;11972;48.078;11.876;2023-02-12T11:29:22;97261.66;;;8.12;100.00
23589;BME280;11972;48.078;11.876;2023-02-12T11:37:32;97265.88;;;8.03;100.00
23589;BME280;11972;48.078;11.876;2023-02-12T11:41:37;97261.63;;;8.55;100.00
23589;BME280;11972;48.078;11.876;2023-02-12T11:45:43;97260.41;;;9.22;100.00
23589;BME280;11972;48.078;11.876;2023-02-12T11:50:17;97247.34;;;10.11;100.00
23589;BME280;11972;48.078;11.876;2023-02-12T11:54:28;97251.53;;;10.81;100.00
23589;BME280;11972;48.078;11.876;2023-02-12T11:58:30;97233.88;;;11.29;100.00
23589;BME280;11972;48.078;11.876;2023-02-12T12:02:33;97227.97;;;11.45;100.00
23589;BME280;11972;48.078;11.876;2023-02-12T12:06:50;97227.56;;;11.67;100.00
23589;BME280;11972;48.078;11.876;2023-02-12T12:11:09;97220.78;;;11.92;100.00
23589;BME280;11972;48.078;11.876;2023-02-12T12:15:31;97214.22;;;12.32;100.00
23589;BME280;11972;48.078;11.876;2023-02-12T12:20:12;97208.91;;;12.50;100.00
23589;BME280;11972;48.078;11.876;2023-02-12T12:24:25;97197.72;;;12.20;100.00
23589;BME280;11972;48.078;11.876;2023-02-12T12:28:35;97201.94;;;11.95;100.00
23589;BME280;11972;48.078;11.876;2023-02-12T12:32:41;97205.72;;;11.65;100.00
23589;BME280;11972;48.078;11.876;2023-02-12T12:36:50;97213.66;;;11.65;100.00
23589;BME280;11972;48.078;11.876;2023-02-12T12:41:02;97204.28;;;11.71;100.00
23589;BME280;11972;48.078;11.876;2023-02-12T12:53:59;97211.22;;;10.60;100.00
23589;BME280;11972;48.078;11.876;2023-02-12T12:58:28;97207.84;;;10.77;100.00
23589;BME280;11972;48.078;11.876;2023-02-12T13:20:10;97201.13;;;8.86;100.00
23589;BME280;11972;48.078;11.876;2023-02-12T13:24:21;97203.06;;;8.63;100.00
23589;BME280;11972;48.078;11.876;2023-02-12T13:28:33;97206.31;;;8.55;100.00
23589;BME280;11972;48.078;11.876;2023-02-12T13:32:39;97202.72;;;8.35;100.00
23589;BME280;11972;48.078;11.876;2023-02-12T13:36:42;97205.44;;;8.13;100.00
23589;BME280;11972;48.078;11.876;2023-02-12T13:40:44;97205.75;;;7.99;100.00
23589;BME280;11972;48.078;11.876;2023-02-12T13:44:51;97195.22;;;7.99;100.00
23589;BME280;11972;48.078;11.876;2023-02-12T13:53:01;97201.28;;;8.31;100.00
23589;BME280;11972;48.078;11.876;2023-02-12T13:57:10;97193.16;;;8.55;100.00
23589;BME280;11972;48.078;11.876;2023-02-12T14:01:44;97195.16;;;8.63;100.00
23589;BME280;11972;48.078;11.876;2023-02-12T14:05:48;97183.38;;;8.67;100.00
23589;BME280;11972;48.078;11.876;2023-02-12T14:13:59;97186.50;;;8.19;100.00
23589;BME280;11972;48.078;11.876;2023-02-12T14:26:35;97181.69;;;8.24;100.00
23589;BME280;11972;48.078;11.876;2023-02-12T14:30:38;97184.94;;;7.95;100.00
23589;BME280;11972;48.078;11.876;2023-02-12T14:34:39;97193.44;;;7.88;100.00
23589;BME280;11972;48.078;11.876;2023-02-12T14:50:47;97183.84;;;7.66;100.00
23589;BME280;11972;48.078;11.876;2023-02-12T14:54:53;97188.13;;;7.56;100.00
23589;BME280;11972;48.078;11.876;2023-02-12T14:58:55;97189.13;;;7.43;100.00
23589;BME280;11972;48.078;11.876;2023-02-12T15:03:16;97184.59;;;7.34;100.00
23589;BME280;11972;48.078;11.876;2023-02-12T15:07:32;97198.72;;;7.33;100.00
23589;BME280;11972;48.078;11.876;2023-02-12T15:11:40;97192.63;;;7.33;100.00
23589;BME280;11972;48.078;11.876;2023-02-12T15:15:53;97189.25;;;7.31;100.00
23589;BME280;11972;48.078;11.876;2023-02-12T15:19:59;97191.75;;;7.32;100.00
23589;BME280;11972;48.078;11.876;2023-02-12T15:28:19;97197.03;;;7.10;100.00
23589;BME280;11972;48.078;11.876;2023-02-12T15:32:24;97201.34;;;6.88;100.00
23589;BME280;11972;48.078;11.876;2023-02-12T15:36:28;97196.56;;;6.71;100.00
23589;BME280;11972;48.078;11.876;2023-02-12T15:40:30;97199.16;;;6.60;100.00
23589;BME280;11972;48.078;11.876;2023-02-12T15:44:31;97187.31;;;6.43;100.00
23589;BME280;11972;48.078;11.876;2023-02-12T15:48:35;97192.66;;;6.30;100.00
23589;BME280;11972;48.078;11.876;2023-02-12T15:52:40;97194.59;;;6.15;100.00
23589;BME280;11972;48.078;11.876;2023-02-12T15:56:41;97195.53;;;6.03;100.00
23589;BME280;11972;48.078;11.876;2023-02-12T16:00:44;97198.91;;;5.92;100.00
23589;BME280;11972;48.078;11.876;2023-02-12T16:04:48;97198.72;;;5.83;100.00
23589;BME280;11972;48.078;11.876;2023-02-12T16:08:58;97197.41;;;5.77;100.00
23589;BME280;11972;48.078;11.876;2023-02-12T16:13:01;97199.00;;;5.67;100.00
23589;BME280;11972;48.078;11.876;2023-02-12T16:17:01;97197.97;;;5.69;100.00
23589;BME280;11972;48.078;11.876;2023-02-12T16:21:23;97195.16;;;5.60;100.00
23589;BME280;11972;48.078;11.876;2023-02-12T16:25:31;97198.81;;;5.33;100.00
23589;BME280;11972;48.078;11.876;2023-02-12T16:29:36;97205.47;;;5.01;100.00
23589;BME280;11972;48.078;11.876;2023-02-12T16:41:54;97206.72;;;4.31;100.00
23589;BME280;11972;48.078;11.876;2023-02-12T16:46:02;97211.50;;;4.12;100.00
23589;BME280;11972;48.078;11.876;2023-02-12T16:50:04;97216.97;;;3.94;100.00
23589;BME280;11972;48.078;11.876;2023-02-12T16:54:24;97223.50;;;3.75;100.00
23589;BME280;11972;48.078;11.876;2023-02-12T16:58:26;97220.28;;;3.57;100.00
23589;BME280;11972;48.078;11.876;2023-02-12T17:02:27;97223.38;;;3.49;100.00
23589;BME280;11972;48.078;11.876;2023-02-12T17:06:29;97236.66;;;3.32;100.00
23589;BME280;11972;48.078;11.876;2023-02-12T17:10:30;97226.53;;;3.13;100.00
23589;BME280;11972;48.078;11.876;2023-02-12T17:14:30;97227.28;;;3.01;100.00
23589;BME280;11972;48.078;11.876;2023-02-12T17:18:31;97230.81;;;2.99;100.00
23589;BME280;11972;48.078;11.876;2023-02-12T17:22:32;97232.50;;;2.86;100.00
23589;BME280;11972;48.078;11.876;2023-02-12T17:26:32;97222.44;;;2.80;100.00
23589;BME280;11972;48.078;11.876;2023-02-12T17:30:33;97219.63;;;2.83;100.00
23589;BME280;11972;48.078;11.876;2023-02-12T17:34:33;97215.81;;;2.74;100.00
23589;BME280;11972;48.078;11.876;2023-02-12T17:38:36;97220.56;;;2.82;100.00
23589;BME280;11972;48.078;11.876;2023-02-12T17:42:36;97223.47;;;2.78;100.00
23589;BME280;11972;48.078;11.876;2023-02-12T17:46:36;97226.91;;;2.78;100.00
23589;BME280;11972;48.078;11.876;2023-02-12T17:50:37;97228.75;;;2.62;100.00
23589;BME280;11972;48.078;11.876;2023-02-12T17:54:38;97222.88;;;2.44;100.00
23589;BME280;11972;48.078;11.876;2023-02-12T17:58:39;97237.28;;;2.35;100.00
23589;BME280;11972;48.078;11.876;2023-02-12T18:02:40;97231.84;;;2.24;100.00
23589;BME280;11972;48.078;11.876;2023-02-12T18:06:40;97231.06;;;2.08;100.00
23589;BME280;11972;48.078;11.876;2023-02-12T18:10:42;97232.44;;;1.99;100.00
23589;BME280;11972;48.078;11.876;2023-02-12T18:14:42;97227.06;;;1.86;100.00
23589;BME280;11972;48.078;11.876;2023-02-12T18:18:43;97232.16;;;1.73;100.00
23589;BME280;11972;48.078;11.876;2023-02-12T18:22:43;97243.72;;;1.68;100.00
23589;BME280;11972;48.078;11.876;2023-02-12T18:26:44;97239.44;;;1.67;100.00
23589;BME280;11972;48.078;11.876;2023-02-12T18:30:45;97237.63;;;1.69;100.00
23589;BME280;11972;48.078;11.876;2023-02-12T18:34:45;97233.81;;;1.59;100.00
23589;BME280;11972;48.078;11.876;2023-02-12T18:38:47;97237.88;;;1.48;100.00
23589;BME280;11972;48.078;11.876;2023-02-12T18:42:48;97236.53;;;1.41;100.00
23589;BME280;11972;48.078;11.876;2023-02-12T18:46:48;97230.13;;;1.31;100.00
23589;BME280;11972;48.078;11.876;2023-02-12T18:50:49;97231.47;;;1.22;100.00
23589;BME280;11972;48.078;11.876;2023-02-12T18:54:51;97228.44;;;1.14;100.00
23589;BME280;11972;48.078;11.876;2023-02-12T18:58:56;97226.03;;;1.11;100.00
23589;BME280;11972;48.078;11.876;2023-02-12T19:02:57;97226.09;;;1.10;100.00
23589;BME280;11972;48.078;11.876;2023-02-12T19:06:57;97229.94;;;1.03;100.00
23589;BME280;11972;48.078;11.876;2023-02-12T19:10:58;97225.56;;;0.87;100.00
23589;BME280;11972;48.078;11.876;2023-02-12T19:14:58;97225.44;;;0.73;100.00
23589;BME280;11972;48.078;11.876;2023-02-12T19:18:58;97232.78;;;0.65;100.00
23589;BME280;11972;48.078;11.876;2023-02-12T19:23:00;97233.72;;;0.64;100.00
23589;BME280;11972;48.078;11.876;2023-02-12T19:27:00;97230.19;;;0.65;100.00
23589;BME280;11972;48.078;11.876;2023-02-12T19:31:13;97224.31;;;0.61;100.00
23589;BME280;11972;48.078;11.876;2023-02-12T19:35:14;97226.84;;;0.63;100.00
23589;BME280;11972;48.078;11.876;2023-02-12T19:39:16;97220.88;;;0.61;100.00
23589;BME280;11972;48.078;11.876;2023-02-12T19:43:18;97227.97;;;0.57;100.00
23589;BME280;11972;48.078;11.876;2023-02-12T19:47:18;97227.78;;;0.62;100.00
23589;BME280;11972;48.078;11.876;2023-02-12T19:51:20;97232.94;;;0.79;100.00
23589;BME280;11972;48.078;11.876;2023-02-12T19:55:20;97230.38;;;1.11;100.00
23589;BME280;11972;48.078;11.876;2023-02-12T19:59:22;97229.66;;;1.40;100.00
23589;BME280;11972;48.078;11.876;2023-02-12T20:03:23;97224.66;;;1.52;100.00
23589;BME280;11972;48.078;11.876;2023-02-12T20:07:23;97229.53;;;1.58;100.00
23589;BME280;11972;48.078;11.876;2023-02-12T20:11:25;97226.09;;;1.73;100.00
23589;BME280;11972;48.078;11.876;2023-02-12T20:15:27;97224.94;;;1.93;100.00
23589;BME280;11972;48.078;11.876;2023-02-12T20:19:30;97229.38;;;2.07;100.00
23589;BME280;11972;48.078;11.876;2023-02-12T20:23:31;97229.38;;;2.07;100.00
23589;BME280;11972;48.078;11.876;2023-02-12T20:27:32;97230.53;;;2.17;100.00
23589;BME280;11972;48.078;11.876;2023-02-12T20:31:35;97231.84;;;2.24;100.00
23589;BME280;11972;48.078;11.876;2023-02-12T20:35:36;97233.19;;;2.31;100.00
23589;BME280;11972;48.078;11.876;2023-02-12T20:39:36;97226.66;;;2.38;100.00
23589;BME280;11972;48.078;11.876;2023-02-12T20:43:37;97226.88;;;2.49;100.00
23589;BME280;11972;48.078;11.876;2023-02-12T20:47:37;97220.53;;;2.54;100.00
23589;BME280;11972;48.078;11.876;2023-02-12T20:51:38;97229.19;;;2.54;100.00
23589;BME280;11972;48.078;11.876;2023-02-12T20:55:39;97228.28;;;2.55;100.00
23589;BME280;11972;48.078;11.876;2023-02-12T20:59:39;97228.75;;;2.62;100.00
23589;BME280;11972;48.078;11.876;2023-02-12T21:03:40;97240.22;;;2.59;100.00
23589;BME280;11972;48.078;11.876;2023-02-12T21:07:40;97233.31;;;2.58;100.00
23589;BME280;11972;48.078;11.876;2023-02-12T21:11:42;97238.19;;;2.64;100.00
23589;BME280;11972;48.078;11.876;2023-02-12T21:15:44;97230.91;;;2.69;100.00
23589;BME280;11972;48.078;11.876;2023-02-12T21:19:45;97228.00;;;2.74;100.00
23589;BME280;11972;48.078;11.876;2023-02-12T21:23:45;97225.41;;;2.74;100.00
23589;BME280;11972;48.078;11.876;2023-02-12T21:27:45;97231.19;;;2.79;100.00
23589;BME280;11972;48.078;11.876;2023-02-12T21:31:47;97219.19;;;2.77;100.00
23589;BME280;11972;48.078;11.876;2023-02-12T21:35:48;97225.41;;;2.74;100.00
23589;BME280;11972;48.078;11.876;2023-02-12T21:39:48;97233.41;;;2.71;100.00
23589;BME280;11972;48.078;11.876;2023-02-12T21:44:21;97236.13;;;2.69;100.00
23589;BME280;11972;48.078;11.876;2023-02-12T21:48:20;97238.91;;;2.66;100.00
23589;BME280;11972;48.078;11.876;2023-02-12T21:52:20;97250.47;;;2.62;100.00
23589;BME280;11972;48.078;11.876;2023-02-12T21:56:20;97249.97;;;2.41;100.00
23589;BME280;11972;48.078;11.876;2023-02-12T22:00:21;97256.84;;;2.42;100.00
23589;BME280;11972;48.078;11.876;2023-02-12T22:04:21;97260.56;;;2.38;100.00
23589;BME280;11972;48.078;11.876;2023-02-12T22:08:22;97252.34;;;2.30;100.00
23589;BME280;11972;48.078;11.876;2023-02-12T22:12:23;97261.09;;;2.29;100.00
23589;BME280;11972;48.078;11.876;2023-02-12T22:16:25;97259.81;;;2.36;100.00
23589;BME280;11972;48.078;11.876;2023-02-12T22:20:25;97259.66;;;2.39;100.00
23589;BME280;11972;48.078;11.876;2023-02-12T22:24:26;97256.50;;;2.48;100.00
23589;BME280;11972;48.078;11.876;2023-02-12T22:28:26;97255.41;;;2.53;100.00
23589;BME280;11972;48.078;11.876;2023-02-12T22:32:26;97255.28;;;2.54;100.00
23589;BME280;11972;48.078;11.876;2023-02-12T22:36:28;97255.88;;;2.59;100.00
23589;BME280;11972;48.078;11.876;2023-02-12T22:40:28;97252.41;;;2.59;100.00
23589;BME280;11972;48.078;11.876;2023-02-12T22:44:28;97253.78;;;2.50;100.00
23589;BME280;11972;48.078;11.876;2023-02-12T22:48:29;97254.63;;;2.51;100.00
23589;BME280;11972;48.078;11.876;2023-02-12T22:52:30;97258.66;;;2.56;100.00
23589;BME280;11972;48.078;11.876;2023-02-12T22:56:31;97255.94;;;2.58;100.00
23589;BME280;11972;48.078;11.876;2023-02-12T23:00:31;97252.41;;;2.59;100.00
23589;BME280;11972;48.078;11.876;2023-02-12T23:04:32;97245.50;;;2.58;100.00
23589;BME280;11972;48.078;11.876;2023-02-12T23:08:33;97246.56;;;2.55;100.00
23589;BME280;11972;48.078;11.876;2023-02-12T23:12:33;97243.00;;;2.56;100.00
23589;BME280;11972;48.078;11.876;2023-02-12T23:16:33;97234.63;;;2.51;100.00